sensor_id;sensor_type;location;lat;lon;timestamp;pressure;altitude;pressure_sealevel;temperature;humidity
33697;BME280;20031;43.416;23.232;2023-04-01T00:01:03;98955.97;;;12.19;62.57
33697;BME280;20031;43.416;23.232;2023-04-01T00:03:29;98952.56;;;12.18;62.42
33697;BME280;20031;43.416;23.232;2023-04-01T00:05:57;98957.94;;;12.17;62.96
33697;BME280;20031;43.416;23.232;2023-04-01T00:08:23;98951.94;;;12.16;63.20
33697;BME280;20031;43.416;23.232;2023-04-01T00:10:49;98953.94;;;12.14;63.41
33697;BME280;20031;43.416;23.232;2023-04-01T00:13:15;98952.31;;;12.13;63.66
33697;BME280;20031;43.416;23.232;2023-04-01T00:15:41;98953.31;;;12.12;63.42
33697;BME280;20031;43.416;23.232;2023-04-01T00:18:07;98955.91;;;12.12;63.24
33697;BME280;20031;43.416;23.232;2023-04-01T00:20:33;98949.09;;;12.11;63.53
33697;BME280;20031;43.416;23.232;2023-04-01T00:22:58;98943.25;;;12.09;63.41
33697;BME280;20031;43.416;23.232;2023-04-01T00:25:24;98940.06;;;12.07;63.55
33697;BME280;20031;43.416;23.232;2023-04-01T00:27:50;98943.66;;;12.06;64.08
33697;BME280;20031;43.416;23.232;2023-04-01T00:30:16;98939.63;;;12.04;64.08
33697;BME280;20031;43.416;23.232;2023-04-01T00:32:42;98934.41;;;12.04;63.68
33697;BME280;20031;43.416;23.232;2023-04-01T00:35:07;98930.41;;;12.01;63.87
33697;BME280;20031;43.416;23.232;2023-04-01T00:37:35;98932.63;;;12.04;63.86
33697;BME280;20031;43.416;23.232;2023-04-01T00:40:04;98920.38;;;12.05;63.79
33697;BME280;20031;43.416;23.232;2023-04-01T00:42:30;98919.19;;;12.07;63.28
33697;BME280;20031;43.416;23.232;2023-04-01T00:44:56;98905.13;;;12.08;63.31
33697;BME280;20031;43.416;23.232;2023-04-01T00:47:23;98903.31;;;12.09;63.14
33697;BME280;20031;43.416;23.232;2023-04-01T00:49:51;98898.91;;;12.09;63.35
33697;BME280;20031;43.416;23.232;2023-04-01T00:52:21;98894.69;;;12.08;63.10
33697;BME280;20031;43.416;23.232;2023-04-01T00:54:53;98894.69;;;12.08;63.31
33697;BME280;20031;43.416;23.232;2023-04-01T00:57:26;98884.25;;;12.08;63.25
33697;BME280;20031;43.416;23.232;2023-04-01T00:59:54;98886.88;;;12.08;63.40
33697;BME280;20031;43.416;23.232;2023-04-01T01:02:20;98879.63;;;12.10;63.71
33697;BME280;20031;43.416;23.232;2023-04-01T01:04:46;98871.81;;;12.10;63.83
33697;BME280;20031;43.416;23.232;2023-04-01T01:15:46;98871.81;;;12.17;63.68
33697;BME280;20031;43.416;23.232;2023-04-01T01:18:38;98857.75;;;12.18;63.72
33697;BME280;20031;43.416;23.232;2023-04-01T01:24:48;98851.75;;;12.17;63.94
33697;BME280;20031;43.416;23.232;2023-04-01T01:27:11;98850.13;;;12.16;64.13
33697;BME280;20031;43.416;23.232;2023-04-01T01:29:49;98838.06;;;12.15;64.15
33697;BME280;20031;43.416;23.232;2023-04-01T01:35:45;98841.50;;;12.16;64.60
33697;BME280;20031;43.416;23.232;2023-04-01T01:38:15;98839.69;;;12.16;64.62
33697;BME280;20031;43.416;23.232;2023-04-01T01:40:44;98829.06;;;12.18;64.07
33697;BME280;20031;43.416;23.232;2023-04-01T01:43:15;98823.44;;;12.21;64.23
33697;BME280;20031;43.416;23.232;2023-04-01T01:45:47;98823.84;;;12.24;64.06
33697;BME280;20031;43.416;23.232;2023-04-01T01:48:15;98821.47;;;12.35;63.11
33697;BME280;20031;43.416;23.232;2023-04-01T01:50:42;98807.41;;;12.75;60.04
33697;BME280;20031;43.416;23.232;2023-04-01T01:53:11;98806.78;;;13.05;57.05
33697;BME280;20031;43.416;23.232;2023-04-01T01:55:40;98800.88;;;13.29;54.81
33697;BME280;20031;43.416;23.232;2023-04-01T01:58:24;98798.19;;;13.55;53.32
33697;BME280;20031;43.416;23.232;2023-04-01T02:03:44;98806.44;;;13.95;51.43
33697;BME280;20031;43.416;23.232;2023-04-01T02:06:14;98805.56;;;14.08;50.26
33697;BME280;20031;43.416;23.232;2023-04-01T02:08:42;98798.22;;;14.23;49.94
33697;BME280;20031;43.416;23.232;2023-04-01T02:11:12;98796.16;;;14.31;48.71
33697;BME280;20031;43.416;23.232;2023-04-01T02:17:02;98788.28;;;14.62;47.38
33697;BME280;20031;43.416;23.232;2023-04-01T02:19:37;98793.88;;;14.65;47.15
33697;BME280;20031;43.416;23.232;2023-04-01T02:22:06;98795.41;;;14.73;46.61
33697;BME280;20031;43.416;23.232;2023-04-01T02:24:35;98799.78;;;14.78;45.83
33697;BME280;20031;43.416;23.232;2023-04-01T02:27:03;98802.72;;;14.88;45.78
33697;BME280;20031;43.416;23.232;2023-04-01T02:29:29;98805.09;;;15.14;44.63
33697;BME280;20031;43.416;23.232;2023-04-01T02:31:55;98799.88;;;15.50;43.08
33697;BME280;20031;43.416;23.232;2023-04-01T02:34:22;98798.94;;;15.91;41.73
33697;BME280;20031;43.416;23.232;2023-04-01T02:36:49;98806.44;;;16.17;41.30
33697;BME280;20031;43.416;23.232;2023-04-01T02:39:15;98810.78;;;16.41;40.89
33697;BME280;20031;43.416;23.232;2023-04-01T02:41:43;98812.63;;;16.52;40.50
33697;BME280;20031;43.416;23.232;2023-04-01T02:44:10;98816.19;;;16.46;41.16
33697;BME280;20031;43.416;23.232;2023-04-01T02:46:37;98822.00;;;16.48;41.16
33697;BME280;20031;43.416;23.232;2023-04-01T02:49:02;98809.06;;;16.35;42.71
33697;BME280;20031;43.416;23.232;2023-04-01T02:51:28;98812.94;;;16.44;42.46
33697;BME280;20031;43.416;23.232;2023-04-01T02:53:53;98801.75;;;16.48;42.43
33697;BME280;20031;43.416;23.232;2023-04-01T02:56:19;98799.94;;;16.49;42.18
33697;BME280;20031;43.416;23.232;2023-04-01T02:58:45;98791.13;;;16.43;41.98
33697;BME280;20031;43.416;23.232;2023-04-01T03:01:11;98789.75;;;16.41;42.13
33697;BME280;20031;43.416;23.232;2023-04-01T03:03:36;98798.78;;;16.34;42.16
33697;BME280;20031;43.416;23.232;2023-04-01T03:06:10;98794.53;;;16.33;42.57
33697;BME280;20031;43.416;23.232;2023-04-01T03:08:36;98795.53;;;16.32;42.96
33697;BME280;20031;43.416;23.232;2023-04-01T03:11:02;98800.81;;;16.32;44.11
33697;BME280;20031;43.416;23.232;2023-04-01T03:13:28;98804.34;;;16.26;45.94
33697;BME280;20031;43.416;23.232;2023-04-01T03:15:53;98802.69;;;16.13;46.62
33697;BME280;20031;43.416;23.232;2023-04-01T03:18:19;98806.84;;;16.03;47.50
33697;BME280;20031;43.416;23.232;2023-04-01T03:20:45;98801.50;;;15.98;47.87
33697;BME280;20031;43.416;23.232;2023-04-01T03:23:10;98801.34;;;15.93;47.85
33697;BME280;20031;43.416;23.232;2023-04-01T03:25:36;98804.06;;;15.86;48.30
33697;BME280;20031;43.416;23.232;2023-04-01T03:28:02;98810.06;;;15.76;49.76
33697;BME280;20031;43.416;23.232;2023-04-01T03:30:28;98807.81;;;15.61;50.92
33697;BME280;20031;43.416;23.232;2023-04-01T03:32:55;98815.91;;;15.60;50.12
33697;BME280;20031;43.416;23.232;2023-04-01T03:35:21;98806.66;;;15.57;49.79
33697;BME280;20031;43.416;23.232;2023-04-01T03:37:46;98805.88;;;15.57;50.36
33697;BME280;20031;43.416;23.232;2023-04-01T03:40:12;98811.91;;;15.57;49.96
33697;BME280;20031;43.416;23.232;2023-04-01T03:42:37;98810.22;;;15.63;49.25
33697;BME280;20031;43.416;23.232;2023-04-01T03:45:04;98810.66;;;15.60;49.89
33697;BME280;20031;43.416;23.232;2023-04-01T03:47:29;98811.13;;;15.57;49.76
33697;BME280;20031;43.416;23.232;2023-04-01T03:49:55;98811.91;;;15.57;49.78
33697;BME280;20031;43.416;23.232;2023-04-01T03:52:21;98825.97;;;15.63;49.75
33697;BME280;20031;43.416;23.232;2023-04-01T03:54:47;98818.66;;;15.65;50.27
33697;BME280;20031;43.416;23.232;2023-04-01T03:57:12;98813.88;;;15.62;50.51
33697;BME280;20031;43.416;23.232;2023-04-01T03:59:38;98817.38;;;15.56;51.08
33697;BME280;20031;43.416;23.232;2023-04-01T04:02:03;98819.28;;;15.49;51.70
33697;BME280;20031;43.416;23.232;2023-04-01T04:04:29;98817.38;;;15.38;52.72
33697;BME280;20031;43.416;23.232;2023-04-01T04:06:55;98815.06;;;15.30;53.67
33697;BME280;20031;43.416;23.232;2023-04-01T04:09:21;98801.13;;;15.30;53.55
33697;BME280;20031;43.416;23.232;2023-04-01T04:11:47;98805.00;;;15.27;53.47
33697;BME280;20031;43.416;23.232;2023-04-01T04:14:13;98800.31;;;15.29;53.39
33697;BME280;20031;43.416;23.232;2023-04-01T04:16:38;98801.19;;;15.23;54.10
33697;BME280;20031;43.416;23.232;2023-04-01T04:19:04;98796.19;;;15.15;55.17
33697;BME280;20031;43.416;23.232;2023-04-01T04:21:29;98778.81;;;15.03;56.54
33697;BME280;20031;43.416;23.232;2023-04-01T04:23:55;98780.53;;;14.91;57.51
33697;BME280;20031;43.416;23.232;2023-04-01T04:26:20;98778.41;;;14.81;58.35
33697;BME280;20031;43.416;23.232;2023-04-01T04:28:46;98773.88;;;14.71;59.00
33697;BME280;20031;43.416;23.232;2023-04-01T04:31:12;98766.28;;;14.63;59.65
33697;BME280;20031;43.416;23.232;2023-04-01T04:33:37;98768.88;;;14.63;59.38
33697;BME280;20031;43.416;23.232;2023-04-01T04:36:03;98773.00;;;14.77;57.81
33697;BME280;20031;43.416;23.232;2023-04-01T04:38:30;98774.44;;;14.73;58.31
33697;BME280;20031;43.416;23.232;2023-04-01T04:40:55;98773.34;;;14.62;59.31
33697;BME280;20031;43.416;23.232;2023-04-01T04:43:21;98765.75;;;14.54;59.79
33697;BME280;20031;43.416;23.232;2023-04-01T04:45:47;98762.78;;;14.44;60.93
33697;BME280;20031;43.416;23.232;2023-04-01T04:48:14;98753.41;;;14.37;61.68
33697;BME280;20031;43.416;23.232;2023-04-01T04:50:50;98749.88;;;14.25;62.59
33697;BME280;20031;43.416;23.232;2023-04-01T04:53:17;98746.09;;;14.15;63.37
33697;BME280;20031;43.416;23.232;2023-04-01T04:55:45;98742.75;;;14.01;65.01
33697;BME280;20031;43.416;23.232;2023-04-01T04:58:10;98735.78;;;13.89;65.98
33697;BME280;20031;43.416;23.232;2023-04-01T05:00:36;98729.22;;;13.80;66.79
33697;BME280;20031;43.416;23.232;2023-04-01T05:03:01;98730.28;;;13.73;67.17
33697;BME280;20031;43.416;23.232;2023-04-01T05:05:26;98727.25;;;13.69;67.30
33697;BME280;20031;43.416;23.232;2023-04-01T05:07:52;98726.25;;;13.70;66.98
33697;BME280;20031;43.416;23.232;2023-04-01T05:10:17;98704.69;;;13.75;66.49
33697;BME280;20031;43.416;23.232;2023-04-01T05:12:43;98709.47;;;13.84;65.92
33697;BME280;20031;43.416;23.232;2023-04-01T05:15:08;98716.84;;;13.93;65.63
33697;BME280;20031;43.416;23.232;2023-04-01T05:17:34;98711.34;;;14.01;65.19
33697;BME280;20031;43.416;23.232;2023-04-01T05:20:00;98708.69;;;14.08;64.56
33697;BME280;20031;43.416;23.232;2023-04-01T05:22:26;98703.06;;;14.11;64.54
33697;BME280;20031;43.416;23.232;2023-04-01T05:24:51;98715.72;;;14.14;64.74
33697;BME280;20031;43.416;23.232;2023-04-01T05:27:17;98704.44;;;14.13;64.91
33697;BME280;20031;43.416;23.232;2023-04-01T05:29:42;98688.28;;;14.16;65.27
33697;BME280;20031;43.416;23.232;2023-04-01T05:32:07;98687.06;;;14.19;65.18
33697;BME280;20031;43.416;23.232;2023-04-01T05:34:33;98691.66;;;14.23;63.83
33697;BME280;20031;43.416;23.232;2023-04-01T05:36:58;98687.56;;;14.33;63.43
33697;BME280;20031;43.416;23.232;2023-04-01T05:39:24;98691.06;;;14.45;62.70
33697;BME280;20031;43.416;23.232;2023-04-01T05:41:49;98679.06;;;14.56;62.22
33697;BME280;20031;43.416;23.232;2023-04-01T05:44:15;98690.00;;;14.71;62.72
33697;BME280;20031;43.416;23.232;2023-04-01T05:46:41;98691.31;;;14.79;61.33
33697;BME280;20031;43.416;23.232;2023-04-01T05:49:06;98693.66;;;14.87;60.81
33697;BME280;20031;43.416;23.232;2023-04-01T05:51:31;98682.28;;;14.93;60.83
33697;BME280;20031;43.416;23.232;2023-04-01T05:53:57;98685.47;;;14.95;60.50
33697;BME280;20031;43.416;23.232;2023-04-01T05:56:22;98686.34;;;14.89;60.98
33697;BME280;20031;43.416;23.232;2023-04-01T05:58:51;98681.44;;;14.81;61.54
33697;BME280;20031;43.416;23.232;2023-04-01T06:01:19;98680.47;;;14.76;61.61
33697;BME280;20031;43.416;23.232;2023-04-01T06:03:44;98687.38;;;14.71;61.81
33697;BME280;20031;43.416;23.232;2023-04-01T06:06:15;98691.09;;;14.63;62.33
33697;BME280;20031;43.416;23.232;2023-04-01T06:08:41;98689.53;;;14.56;62.81
33697;BME280;20031;43.416;23.232;2023-04-01T06:19:22;98665.50;;;14.41;64.83
33697;BME280;20031;43.416;23.232;2023-04-01T06:22:18;98665.94;;;14.38;65.60
33697;BME280;20031;43.416;23.232;2023-04-01T06:27:46;98663.19;;;14.51;61.28
33697;BME280;20031;43.416;23.232;2023-04-01T06:35:50;98677.91;;;15.05;56.26
33697;BME280;20031;43.416;23.232;2023-04-01T06:44:14;98665.22;;;15.02;57.15
33697;BME280;20031;43.416;23.232;2023-04-01T06:46:34;98674.13;;;15.01;57.24
33697;BME280;20031;43.416;23.232;2023-04-01T06:54:42;98677.03;;;14.93;58.26
33697;BME280;20031;43.416;23.232;2023-04-01T06:57:51;98674.88;;;14.90;58.81
33697;BME280;20031;43.416;23.232;2023-04-01T07:00:31;98685.19;;;14.85;59.47
33697;BME280;20031;43.416;23.232;2023-04-01T07:05:31;98687.59;;;14.87;60.09
33697;BME280;20031;43.416;23.232;2023-04-01T07:07:59;98675.53;;;14.86;61.23
33697;BME280;20031;43.416;23.232;2023-04-01T07:10:34;98670.28;;;14.86;61.00
33697;BME280;20031;43.416;23.232;2023-04-01T07:13:05;98674.88;;;14.90;60.53
33697;BME280;20031;43.416;23.232;2023-04-01T07:15:41;98675.00;;;14.95;60.07
33697;BME280;20031;43.416;23.232;2023-04-01T07:18:21;98672.53;;;15.00;58.87
33697;BME280;20031;43.416;23.232;2023-04-01T07:20:51;98681.56;;;15.04;58.29
33697;BME280;20031;43.416;23.232;2023-04-01T07:23:24;98700.66;;;15.11;58.33
33697;BME280;20031;43.416;23.232;2023-04-01T07:25:55;98713.09;;;15.16;59.14
33697;BME280;20031;43.416;23.232;2023-04-01T07:28:20;98715.66;;;15.22;57.81
33697;BME280;20031;43.416;23.232;2023-04-01T07:39:08;98714.41;;;15.42;57.27
33697;BME280;20031;43.416;23.232;2023-04-01T07:44:24;98718.13;;;15.35;59.25
33697;BME280;20031;43.416;23.232;2023-04-01T07:47:30;98738.09;;;15.36;60.37
33697;BME280;20031;43.416;23.232;2023-04-01T07:55:15;98719.56;;;15.31;61.73
33697;BME280;20031;43.416;23.232;2023-04-01T08:00:47;98722.41;;;15.77;61.28
33697;BME280;20031;43.416;23.232;2023-04-01T08:05:56;98697.38;;;16.03;60.15
33697;BME280;20031;43.416;23.232;2023-04-01T08:13:59;98692.75;;;15.99;59.58
33697;BME280;20031;43.416;23.232;2023-04-01T08:16:46;98689.88;;;15.89;59.63
33697;BME280;20031;43.416;23.232;2023-04-01T08:19:30;98691.94;;;15.87;59.40
33697;BME280;20031;43.416;23.232;2023-04-01T08:22:04;98689.22;;;15.82;59.64
33697;BME280;20031;43.416;23.232;2023-04-01T08:24:44;98698.00;;;15.87;59.93
33697;BME280;20031;43.416;23.232;2023-04-01T08:27:41;98700.41;;;15.89;60.66
33697;BME280;20031;43.416;23.232;2023-04-01T08:30:19;98697.13;;;15.93;60.20
33697;BME280;20031;43.416;23.232;2023-04-01T08:38:41;98683.94;;;16.57;59.78
33697;BME280;20031;43.416;23.232;2023-04-01T08:52:35;98667.00;;;17.26;57.86
33697;BME280;20031;43.416;23.232;2023-04-01T08:55:36;98670.34;;;17.22;57.51
33697;BME280;20031;43.416;23.232;2023-04-01T09:00:54;98669.31;;;16.61;58.45
33697;BME280;20031;43.416;23.232;2023-04-01T09:06:44;98676.59;;;16.13;59.81
33697;BME280;20031;43.416;23.232;2023-04-01T09:09:55;98674.38;;;15.99;61.28
33697;BME280;20031;43.416;23.232;2023-04-01T09:21:14;98660.91;;;15.95;62.92
33697;BME280;20031;43.416;23.232;2023-04-01T09:24:11;98644.03;;;16.03;62.82
33697;BME280;20031;43.416;23.232;2023-04-01T09:26:54;98645.41;;;16.17;62.44
33697;BME280;20031;43.416;23.232;2023-04-01T09:35:36;98625.53;;;16.66;61.01
33697;BME280;20031;43.416;23.232;2023-04-01T09:40:48;98625.47;;;16.89;60.16
33697;BME280;20031;43.416;23.232;2023-04-01T09:43:27;98624.50;;;17.06;59.85
33697;BME280;20031;43.416;23.232;2023-04-01T09:46:08;98608.44;;;17.47;58.95
33697;BME280;20031;43.416;23.232;2023-04-01T10:11:44;98619.28;;;16.95;59.52
33697;BME280;20031;43.416;23.232;2023-04-01T10:19:43;98618.22;;;16.57;60.58
33697;BME280;20031;43.416;23.232;2023-04-01T10:33:46;98619.47;;;15.97;62.40
33697;BME280;20031;43.416;23.232;2023-04-01T10:36:35;98620.50;;;15.85;63.18
33697;BME280;20031;43.416;23.232;2023-04-01T10:56:25;98596.47;;;15.59;66.97
33697;BME280;20031;43.416;23.232;2023-04-01T11:13:38;98597.72;;;15.68;68.87
33697;BME280;20031;43.416;23.232;2023-04-01T11:24:43;98591.81;;;15.02;69.82
33697;BME280;20031;43.416;23.232;2023-04-01T11:43:16;98633.28;;;14.40;72.98
33697;BME280;20031;43.416;23.232;2023-04-01T11:46:17;98643.47;;;14.30;73.92
33697;BME280;20031;43.416;23.232;2023-04-01T12:00:02;98672.72;;;13.97;77.67
33697;BME280;20031;43.416;23.232;2023-04-01T12:05:39;98687.28;;;13.86;78.66
33697;BME280;20031;43.416;23.232;2023-04-01T12:09:01;98687.50;;;13.85;79.19
33697;BME280;20031;43.416;23.232;2023-04-01T12:22:31;98626.34;;;14.04;81.68
33697;BME280;20031;43.416;23.232;2023-04-01T12:25:26;98596.59;;;13.98;82.30
33697;BME280;20031;43.416;23.232;2023-04-01T12:33:40;98578.97;;;13.87;83.97
33697;BME280;20031;43.416;23.232;2023-04-01T12:37:15;98565.22;;;13.92;84.32
33697;BME280;20031;43.416;23.232;2023-04-01T12:55:45;98550.47;;;14.86;78.45
33697;BME280;20031;43.416;23.232;2023-04-01T13:04:19;98521.38;;;15.81;75.15
33697;BME280;20031;43.416;23.232;2023-04-01T13:25:26;98441.63;;;17.04;68.06
33697;BME280;20031;43.416;23.232;2023-04-01T13:28:12;98443.16;;;16.72;67.24
33697;BME280;20031;43.416;23.232;2023-04-01T13:30:53;98427.84;;;16.97;68.77
33697;BME280;20031;43.416;23.232;2023-04-01T13:33:26;98419.94;;;17.13;67.29
33697;BME280;20031;43.416;23.232;2023-04-01T13:41:35;98407.19;;;16.89;69.71
33697;BME280;20031;43.416;23.232;2023-04-01T13:44:22;98394.41;;;17.14;69.05
33697;BME280;20031;43.416;23.232;2023-04-01T14:01:09;98386.38;;;16.87;71.63
33697;BME280;20031;43.416;23.232;2023-04-01T14:23:37;98379.22;;;16.00;72.77
33697;BME280;20031;43.416;23.232;2023-04-01T14:28:55;98365.78;;;15.96;73.40
33697;BME280;20031;43.416;23.232;2023-04-01T14:34:24;98367.94;;;15.99;72.36
33697;BME280;20031;43.416;23.232;2023-04-01T14:40:16;98361.44;;;15.90;72.37
33697;BME280;20031;43.416;23.232;2023-04-01T14:48:38;98374.50;;;15.74;71.02
33697;BME280;20031;43.416;23.232;2023-04-01T14:51:14;98388.09;;;15.71;71.25
33697;BME280;20031;43.416;23.232;2023-04-01T14:53:53;98409.22;;;15.65;71.06
33697;BME280;20031;43.416;23.232;2023-04-01T14:57:10;98457.59;;;15.57;70.68
33697;BME280;20031;43.416;23.232;2023-04-01T14:59:28;98522.50;;;15.50;70.62
33697;BME280;20031;43.416;23.232;2023-04-01T15:02:18;98518.38;;;15.32;62.42
33697;BME280;20031;43.416;23.232;2023-04-01T15:04:57;98515.75;;;15.20;59.56
33697;BME280;20031;43.416;23.232;2023-04-01T15:08:00;98523.66;;;15.14;58.44
33697;BME280;20031;43.416;23.232;2023-04-01T15:16:25;98537.63;;;14.96;56.05
33697;BME280;20031;43.416;23.232;2023-04-01T15:22:01;98530.47;;;14.74;56.35
33697;BME280;20031;43.416;23.232;2023-04-01T15:24:45;98550.16;;;14.65;57.14
33697;BME280;20031;43.416;23.232;2023-04-01T15:27:29;98544.97;;;14.59;57.59
33697;BME280;20031;43.416;23.232;2023-04-01T15:32:58;98562.41;;;14.53;57.82
33697;BME280;20031;43.416;23.232;2023-04-01T15:43:45;98580.25;;;14.45;58.36
33697;BME280;20031;43.416;23.232;2023-04-01T15:49:03;98595.66;;;14.35;59.06
33697;BME280;20031;43.416;23.232;2023-04-01T15:55:00;98604.00;;;14.26;60.55
33697;BME280;20031;43.416;23.232;2023-04-01T15:57:31;98622.22;;;14.21;61.56
33697;BME280;20031;43.416;23.232;2023-04-01T16:08:41;98640.16;;;13.86;64.63
33697;BME280;20031;43.416;23.232;2023-04-01T16:11:36;98641.59;;;14.55;65.82
33697;BME280;20031;43.416;23.232;2023-04-01T16:17:25;98650.53;;;14.83;63.89
33697;BME280;20031;43.416;23.232;2023-04-01T16:20:24;98660.59;;;15.04;64.90
33697;BME280;20031;43.416;23.232;2023-04-01T16:23:24;98663.84;;;15.76;63.45
33697;BME280;20031;43.416;23.232;2023-04-01T16:32:28;98703.69;;;14.90;61.95
33697;BME280;20031;43.416;23.232;2023-04-01T16:35:10;98709.94;;;14.54;62.98
33697;BME280;20031;43.416;23.232;2023-04-01T16:37:48;98723.50;;;14.20;63.00
33697;BME280;20031;43.416;23.232;2023-04-01T16:40:25;98724.25;;;13.96;63.22
33697;BME280;20031;43.416;23.232;2023-04-01T16:43:10;98731.22;;;13.78;63.72
33697;BME280;20031;43.416;23.232;2023-04-01T16:45:43;98748.03;;;13.64;63.48
33697;BME280;20031;43.416;23.232;2023-04-01T16:48:14;98750.72;;;13.51;63.15
33697;BME280;20031;43.416;23.232;2023-04-01T16:53:25;98739.69;;;13.43;58.46
33697;BME280;20031;43.416;23.232;2023-04-01T16:58:36;98741.13;;;13.32;57.29
33697;BME280;20031;43.416;23.232;2023-04-01T17:01:38;98762.09;;;13.26;56.90
33697;BME280;20031;43.416;23.232;2023-04-01T17:04:32;98743.59;;;13.21;55.93
33697;BME280;20031;43.416;23.232;2023-04-01T17:07:23;98749.66;;;13.15;55.85
33697;BME280;20031;43.416;23.232;2023-04-01T17:10:19;98743.63;;;13.08;55.51
33697;BME280;20031;43.416;23.232;2023-04-01T17:16:20;98754.13;;;12.95;55.19
33697;BME280;20031;43.416;23.232;2023-04-01T17:18:49;98749.72;;;12.89;56.26
33697;BME280;20031;43.416;23.232;2023-04-01T17:21:33;98751.94;;;12.79;56.84
33697;BME280;20031;43.416;23.232;2023-04-01T17:44:21;98773.66;;;12.35;57.88
33697;BME280;20031;43.416;23.232;2023-04-01T17:57:30;98780.03;;;12.07;58.75
33697;BME280;20031;43.416;23.232;2023-04-01T18:00:24;98793.91;;;12.07;58.86
33697;BME280;20031;43.416;23.232;2023-04-01T18:06:09;98804.75;;;12.04;58.91
33697;BME280;20031;43.416;23.232;2023-04-01T18:09:08;98811.19;;;12.15;58.15
33697;BME280;20031;43.416;23.232;2023-04-01T18:25:27;98822.00;;;12.05;58.63
33697;BME280;20031;43.416;23.232;2023-04-01T18:33:48;98838.03;;;11.96;59.14
33697;BME280;20031;43.416;23.232;2023-04-01T18:36:19;98836.44;;;11.95;58.93
33697;BME280;20031;43.416;23.232;2023-04-01T18:38:55;98843.03;;;11.91;59.54
33697;BME280;20031;43.416;23.232;2023-04-01T18:47:05;98854.88;;;11.87;59.68
33697;BME280;20031;43.416;23.232;2023-04-01T18:52:31;98870.69;;;11.85;59.48
33697;BME280;20031;43.416;23.232;2023-04-01T18:57:49;98882.16;;;11.84;59.81
33697;BME280;20031;43.416;23.232;2023-04-01T19:00:21;98888.38;;;11.83;59.66
33697;BME280;20031;43.416;23.232;2023-04-01T19:02:59;98901.00;;;11.80;59.95
33697;BME280;20031;43.416;23.232;2023-04-01T19:05:34;98895.97;;;11.78;59.81
33697;BME280;20031;43.416;23.232;2023-04-01T19:08:25;98898.94;;;11.75;59.54
33697;BME280;20031;43.416;23.232;2023-04-01T19:13:47;98895.75;;;11.73;59.73
33697;BME280;20031;43.416;23.232;2023-04-01T19:21:44;98907.75;;;11.68;59.59
33697;BME280;20031;43.416;23.232;2023-04-01T19:32:25;98934.84;;;11.67;59.31
33697;BME280;20031;43.416;23.232;2023-04-01T19:35:04;98941.47;;;11.70;58.84
33697;BME280;20031;43.416;23.232;2023-04-01T19:37:50;98941.84;;;11.67;59.03
33697;BME280;20031;43.416;23.232;2023-04-01T19:46:12;98932.59;;;11.58;59.30
33697;BME280;20031;43.416;23.232;2023-04-01T19:51:59;98935.38;;;11.56;59.24
33697;BME280;20031;43.416;23.232;2023-04-01T19:57:49;98928.16;;;11.58;59.33
33697;BME280;20031;43.416;23.232;2023-04-01T20:00:30;98925.75;;;11.57;59.19
33697;BME280;20031;43.416;23.232;2023-04-01T20:03:24;98938.19;;;11.55;59.41
33697;BME280;20031;43.416;23.232;2023-04-01T20:06:05;98933.75;;;11.49;59.28
33697;BME280;20031;43.416;23.232;2023-04-01T20:09:14;98950.09;;;11.43;59.85
33697;BME280;20031;43.416;23.232;2023-04-01T20:14:44;98956.84;;;11.31;60.44
33697;BME280;20031;43.416;23.232;2023-04-01T20:25:17;98965.53;;;11.17;61.79
33697;BME280;20031;43.416;23.232;2023-04-01T20:41:27;98969.69;;;11.12;62.56
33697;BME280;20031;43.416;23.232;2023-04-01T20:44:09;98971.94;;;11.15;62.72
33697;BME280;20031;43.416;23.232;2023-04-01T20:49:41;98967.38;;;11.23;62.07
33697;BME280;20031;43.416;23.232;2023-04-01T20:55:47;98969.25;;;11.29;61.42
33697;BME280;20031;43.416;23.232;2023-04-01T20:58:12;98968.06;;;11.31;61.66
33697;BME280;20031;43.416;23.232;2023-04-01T21:06:51;98983.59;;;11.46;60.96
33697;BME280;20031;43.416;23.232;2023-04-01T21:14:35;98983.88;;;11.51;60.72
33697;BME280;20031;43.416;23.232;2023-04-01T21:17:14;98989.63;;;11.46;60.87
33697;BME280;20031;43.416;23.232;2023-04-01T21:25:08;98993.72;;;11.28;62.98
33697;BME280;20031;43.416;23.232;2023-04-01T21:30:27;98995.81;;;11.18;63.66
33697;BME280;20031;43.416;23.232;2023-04-01T21:33:23;99001.41;;;11.15;63.42
33697;BME280;20031;43.416;23.232;2023-04-01T22:00:40;98993.72;;;11.28;60.37
33697;BME280;20031;43.416;23.232;2023-04-01T22:03:34;99000.16;;;11.32;60.01
33697;BME280;20031;43.416;23.232;2023-04-01T22:11:59;98993.81;;;11.41;58.94
33697;BME280;20031;43.416;23.232;2023-04-01T22:17:25;98986.19;;;11.46;58.34
33697;BME280;20031;43.416;23.232;2023-04-01T22:20:24;98983.78;;;11.44;58.43
33697;BME280;20031;43.416;23.232;2023-04-01T22:25:41;98980.56;;;11.63;57.15
33697;BME280;20031;43.416;23.232;2023-04-01T22:28:09;98967.09;;;11.60;57.11
33697;BME280;20031;43.416;23.232;2023-04-01T22:30:45;98979.06;;;11.54;57.61
33697;BME280;20031;43.416;23.232;2023-04-01T22:43:43;98988.88;;;11.25;58.23
33697;BME280;20031;43.416;23.232;2023-04-01T22:49:17;98998.75;;;11.09;58.97
33697;BME280;20031;43.416;23.232;2023-04-01T22:56:57;98997.91;;;10.46;64.98
33697;BME280;20031;43.416;23.232;2023-04-01T22:59:34;98989.59;;;10.36;65.42
33697;BME280;20031;43.416;23.232;2023-04-01T23:02:22;98991.03;;;10.24;65.58
33697;BME280;20031;43.416;23.232;2023-04-01T23:04:54;98988.53;;;10.16;66.39
33697;BME280;20031;43.416;23.232;2023-04-01T23:07:33;98979.66;;;10.11;66.30
33697;BME280;20031;43.416;23.232;2023-04-01T23:10:05;98987.75;;;10.01;67.44
33697;BME280;20031;43.416;23.232;2023-04-01T23:12:32;98988.19;;;9.90;67.63
33697;BME280;20031;43.416;23.232;2023-04-01T23:15:00;98990.25;;;9.80;68.17
33697;BME280;20031;43.416;23.232;2023-04-01T23:25:34;99003.13;;;9.45;69.95